sensor_id;sensor_type;location;lat;lon;timestamp;temperature;humidity
36800;DHT22;22752;51.960;5.886;2023-03-23T00:01:25;12.10;99.90
36800;DHT22;22752;51.960;5.886;2023-03-23T00:03:53;12.10;99.90
36800;DHT22;22752;51.960;5.886;2023-03-23T00:06:20;12.10;99.90
36800;DHT22;22752;51.960;5.886;2023-03-23T00:08:50;12.10;99.90
36800;DHT22;22752;51.960;5.886;2023-03-23T00:11:24;12.10;99.90
36800;DHT22;22752;51.960;5.886;2023-03-23T00:13:51;12.10;99.90
36800;DHT22;22752;51.960;5.886;2023-03-23T00:16:19;12.10;99.90
36800;DHT22;22752;51.960;5.886;2023-03-23T00:18:50;12.10;99.90
36800;DHT22;22752;51.960;5.886;2023-03-23T00:21:23;12.10;99.90
36800;DHT22;22752;51.960;5.886;2023-03-23T00:24:00;12.10;99.90
36800;DHT22;22752;51.960;5.886;2023-03-23T00:26:26;12.10;99.90
36800;DHT22;22752;51.960;5.886;2023-03-23T00:28:54;12.20;99.90
36800;DHT22;22752;51.960;5.886;2023-03-23T00:31:19;12.20;99.90
36800;DHT22;22752;51.960;5.886;2023-03-23T00:33:45;12.20;99.90
36800;DHT22;22752;51.960;5.886;2023-03-23T00:36:12;12.20;99.90
36800;DHT22;22752;51.960;5.886;2023-03-23T00:38:39;12.20;99.90
36800;DHT22;22752;51.960;5.886;2023-03-23T00:41:06;12.20;99.90
36800;DHT22;22752;51.960;5.886;2023-03-23T00:43:32;12.20;99.90
36800;DHT22;22752;51.960;5.886;2023-03-23T00:46:02;12.20;99.90
36800;DHT22;22752;51.960;5.886;2023-03-23T00:48:33;12.20;99.90
36800;DHT22;22752;51.960;5.886;2023-03-23T00:51:01;12.20;99.90
36800;DHT22;22752;51.960;5.886;2023-03-23T00:53:32;12.20;99.90
36800;DHT22;22752;51.960;5.886;2023-03-23T00:55:57;12.30;99.90
36800;DHT22;22752;51.960;5.886;2023-03-23T00:58:23;12.30;99.90
36800;DHT22;22752;51.960;5.886;2023-03-23T01:00:48;12.30;99.90
36800;DHT22;22752;51.960;5.886;2023-03-23T01:03:14;12.30;99.90
36800;DHT22;22752;51.960;5.886;2023-03-23T01:05:44;12.20;99.90
36800;DHT22;22752;51.960;5.886;2023-03-23T01:08:12;12.20;99.90
36800;DHT22;22752;51.960;5.886;2023-03-23T01:10:39;12.20;99.90
36800;DHT22;22752;51.960;5.886;2023-03-23T01:13:06;12.20;99.90
36800;DHT22;22752;51.960;5.886;2023-03-23T01:15:33;12.20;99.90
36800;DHT22;22752;51.960;5.886;2023-03-23T01:17:58;12.20;99.90
36800;DHT22;22752;51.960;5.886;2023-03-23T01:20:25;12.20;99.90
36800;DHT22;22752;51.960;5.886;2023-03-23T01:22:54;12.20;99.90
36800;DHT22;22752;51.960;5.886;2023-03-23T01:25:26;12.20;99.90
36800;DHT22;22752;51.960;5.886;2023-03-23T01:27:52;12.20;99.90
36800;DHT22;22752;51.960;5.886;2023-03-23T01:30:18;12.20;99.90
36800;DHT22;22752;51.960;5.886;2023-03-23T01:32:43;12.20;99.90
36800;DHT22;22752;51.960;5.886;2023-03-23T01:35:09;12.20;99.90
36800;DHT22;22752;51.960;5.886;2023-03-23T01:37:37;12.20;99.90
36800;DHT22;22752;51.960;5.886;2023-03-23T01:40:03;12.20;99.90
36800;DHT22;22752;51.960;5.886;2023-03-23T01:42:32;12.20;99.90
36800;DHT22;22752;51.960;5.886;2023-03-23T01:47:56;12.20;99.90
36800;DHT22;22752;51.960;5.886;2023-03-23T01:50:23;12.20;99.90
36800;DHT22;22752;51.960;5.886;2023-03-23T01:52:52;12.20;99.90
36800;DHT22;22752;51.960;5.886;2023-03-23T01:55:19;12.20;99.90
36800;DHT22;22752;51.960;5.886;2023-03-23T01:57:45;12.20;99.90
36800;DHT22;22752;51.960;5.886;2023-03-23T02:00:11;12.20;99.90
36800;DHT22;22752;51.960;5.886;2023-03-23T02:02:44;12.20;99.90
36800;DHT22;22752;51.960;5.886;2023-03-23T02:05:14;12.20;99.90
36800;DHT22;22752;51.960;5.886;2023-03-23T02:07:41;12.20;99.90
36800;DHT22;22752;51.960;5.886;2023-03-23T02:10:07;12.20;99.90
36800;DHT22;22752;51.960;5.886;2023-03-23T02:12:33;12.20;99.90
36800;DHT22;22752;51.960;5.886;2023-03-23T02:14:59;12.30;99.90
36800;DHT22;22752;51.960;5.886;2023-03-23T02:17:33;12.30;99.90
36800;DHT22;22752;51.960;5.886;2023-03-23T02:28:41;12.30;99.90
36800;DHT22;22752;51.960;5.886;2023-03-23T02:31:25;12.30;99.90
36800;DHT22;22752;51.960;5.886;2023-03-23T02:34:00;12.40;99.90
36800;DHT22;22752;51.960;5.886;2023-03-23T02:39:09;12.40;99.90
36800;DHT22;22752;51.960;5.886;2023-03-23T02:41:43;12.40;99.90
36800;DHT22;22752;51.960;5.886;2023-03-23T02:44:11;12.40;99.90
36800;DHT22;22752;51.960;5.886;2023-03-23T02:46:39;12.40;99.90
36800;DHT22;22752;51.960;5.886;2023-03-23T02:49:06;12.40;99.90
36800;DHT22;22752;51.960;5.886;2023-03-23T02:51:34;12.40;99.90
36800;DHT22;22752;51.960;5.886;2023-03-23T02:54:01;12.50;99.90
36800;DHT22;22752;51.960;5.886;2023-03-23T02:56:29;12.50;99.90
36800;DHT22;22752;51.960;5.886;2023-03-23T02:58:55;12.50;99.90
36800;DHT22;22752;51.960;5.886;2023-03-23T03:04:01;12.50;99.90
36800;DHT22;22752;51.960;5.886;2023-03-23T03:06:43;12.50;99.90
36800;DHT22;22752;51.960;5.886;2023-03-23T03:11:50;12.50;99.90
36800;DHT22;22752;51.960;5.886;2023-03-23T03:14:24;12.50;99.90
36800;DHT22;22752;51.960;5.886;2023-03-23T03:17:01;12.50;99.90
36800;DHT22;22752;51.960;5.886;2023-03-23T03:19:32;12.50;99.90
36800;DHT22;22752;51.960;5.886;2023-03-23T03:22:00;12.50;99.90
36800;DHT22;22752;51.960;5.886;2023-03-23T03:24:29;12.60;99.90
36800;DHT22;22752;51.960;5.886;2023-03-23T03:26:57;12.60;99.90
36800;DHT22;22752;51.960;5.886;2023-03-23T03:29:32;12.60;99.90
36800;DHT22;22752;51.960;5.886;2023-03-23T03:32:00;12.60;99.90
36800;DHT22;22752;51.960;5.886;2023-03-23T03:34:27;12.60;99.90
36800;DHT22;22752;51.960;5.886;2023-03-23T03:36:56;12.60;99.90
36800;DHT22;22752;51.960;5.886;2023-03-23T03:39:24;12.60;99.90
36800;DHT22;22752;51.960;5.886;2023-03-23T03:41:50;12.60;99.90
36800;DHT22;22752;51.960;5.886;2023-03-23T03:44:16;12.60;99.90
36800;DHT22;22752;51.960;5.886;2023-03-23T03:46:42;12.70;99.90
36800;DHT22;22752;51.960;5.886;2023-03-23T03:49:09;12.70;99.90
36800;DHT22;22752;51.960;5.886;2023-03-23T03:51:37;12.60;99.90
36800;DHT22;22752;51.960;5.886;2023-03-23T03:54:03;12.60;99.90
36800;DHT22;22752;51.960;5.886;2023-03-23T03:56:29;12.70;99.90
36800;DHT22;22752;51.960;5.886;2023-03-23T03:58:56;12.60;99.90
36800;DHT22;22752;51.960;5.886;2023-03-23T04:01:22;12.60;99.90
36800;DHT22;22752;51.960;5.886;2023-03-23T04:03:50;12.70;99.90
36800;DHT22;22752;51.960;5.886;2023-03-23T04:06:16;12.70;99.90
36800;DHT22;22752;51.960;5.886;2023-03-23T04:08:43;12.60;99.90
36800;DHT22;22752;51.960;5.886;2023-03-23T04:11:11;12.70;99.90
36800;DHT22;22752;51.960;5.886;2023-03-23T04:13:37;12.70;99.90
36800;DHT22;22752;51.960;5.886;2023-03-23T04:16:04;12.70;99.90
36800;DHT22;22752;51.960;5.886;2023-03-23T04:18:30;12.70;99.90
36800;DHT22;22752;51.960;5.886;2023-03-23T04:20:58;12.70;99.90
36800;DHT22;22752;51.960;5.886;2023-03-23T04:23:26;12.70;99.90
36800;DHT22;22752;51.960;5.886;2023-03-23T04:25:52;12.70;99.90
36800;DHT22;22752;51.960;5.886;2023-03-23T04:28:22;12.70;99.90
36800;DHT22;22752;51.960;5.886;2023-03-23T04:30:50;12.70;99.90
36800;DHT22;22752;51.960;5.886;2023-03-23T04:33:19;12.70;99.90
36800;DHT22;22752;51.960;5.886;2023-03-23T04:35:46;12.70;99.90
36800;DHT22;22752;51.960;5.886;2023-03-23T04:38:16;12.70;99.90
36800;DHT22;22752;51.960;5.886;2023-03-23T04:40:45;12.80;99.90
36800;DHT22;22752;51.960;5.886;2023-03-23T04:43:11;12.80;99.90
36800;DHT22;22752;51.960;5.886;2023-03-23T04:45:38;12.80;99.90
36800;DHT22;22752;51.960;5.886;2023-03-23T04:48:07;12.80;99.90
36800;DHT22;22752;51.960;5.886;2023-03-23T04:50:34;12.90;99.90
36800;DHT22;22752;51.960;5.886;2023-03-23T04:53:03;12.90;99.90
36800;DHT22;22752;51.960;5.886;2023-03-23T04:55:34;12.90;99.90
36800;DHT22;22752;51.960;5.886;2023-03-23T04:58:02;12.90;99.90
36800;DHT22;22752;51.960;5.886;2023-03-23T05:00:28;12.90;99.90
36800;DHT22;22752;51.960;5.886;2023-03-23T05:02:54;12.90;99.90
36800;DHT22;22752;51.960;5.886;2023-03-23T05:05:21;12.90;99.90
36800;DHT22;22752;51.960;5.886;2023-03-23T05:07:47;12.90;99.90
36800;DHT22;22752;51.960;5.886;2023-03-23T05:10:14;12.90;99.90
36800;DHT22;22752;51.960;5.886;2023-03-23T05:12:41;12.90;99.90
36800;DHT22;22752;51.960;5.886;2023-03-23T05:15:08;12.90;99.90
36800;DHT22;22752;51.960;5.886;2023-03-23T05:17:34;12.80;99.90
36800;DHT22;22752;51.960;5.886;2023-03-23T05:20:01;12.80;99.90
36800;DHT22;22752;51.960;5.886;2023-03-23T05:22:30;12.80;99.90
36800;DHT22;22752;51.960;5.886;2023-03-23T05:24:59;12.80;99.90
36800;DHT22;22752;51.960;5.886;2023-03-23T05:27:28;12.80;99.90
36800;DHT22;22752;51.960;5.886;2023-03-23T05:29:58;12.80;99.90
36800;DHT22;22752;51.960;5.886;2023-03-23T05:32:26;12.80;99.90
36800;DHT22;22752;51.960;5.886;2023-03-23T05:35:00;12.80;99.90
36800;DHT22;22752;51.960;5.886;2023-03-23T05:37:27;12.90;99.90
36800;DHT22;22752;51.960;5.886;2023-03-23T05:39:59;12.90;99.90
36800;DHT22;22752;51.960;5.886;2023-03-23T05:42:31;12.80;99.90
36800;DHT22;22752;51.960;5.886;2023-03-23T05:44:58;12.80;99.90
36800;DHT22;22752;51.960;5.886;2023-03-23T05:47:24;12.80;99.90
36800;DHT22;22752;51.960;5.886;2023-03-23T05:49:51;12.80;99.90
36800;DHT22;22752;51.960;5.886;2023-03-23T05:52:17;12.80;99.90
36800;DHT22;22752;51.960;5.886;2023-03-23T05:54:43;12.90;99.90
36800;DHT22;22752;51.960;5.886;2023-03-23T05:57:10;12.80;99.90
36800;DHT22;22752;51.960;5.886;2023-03-23T05:59:36;12.90;99.90
36800;DHT22;22752;51.960;5.886;2023-03-23T06:02:02;12.80;99.90
36800;DHT22;22752;51.960;5.886;2023-03-23T06:04:28;12.90;99.90
36800;DHT22;22752;51.960;5.886;2023-03-23T06:06:54;12.90;99.90
36800;DHT22;22752;51.960;5.886;2023-03-23T06:09:20;12.90;99.90
36800;DHT22;22752;51.960;5.886;2023-03-23T06:11:46;12.90;99.90
36800;DHT22;22752;51.960;5.886;2023-03-23T06:14:13;13.00;99.90
36800;DHT22;22752;51.960;5.886;2023-03-23T06:16:38;13.00;99.90
36800;DHT22;22752;51.960;5.886;2023-03-23T06:19:04;13.00;99.90
36800;DHT22;22752;51.960;5.886;2023-03-23T06:21:30;13.00;99.90
36800;DHT22;22752;51.960;5.886;2023-03-23T06:23:57;13.00;99.90
36800;DHT22;22752;51.960;5.886;2023-03-23T06:26:30;13.00;99.90
36800;DHT22;22752;51.960;5.886;2023-03-23T06:28:56;13.10;99.90
36800;DHT22;22752;51.960;5.886;2023-03-23T06:31:23;13.10;99.90
36800;DHT22;22752;51.960;5.886;2023-03-23T06:33:49;13.20;99.90
36800;DHT22;22752;51.960;5.886;2023-03-23T06:36:15;13.20;99.90
36800;DHT22;22752;51.960;5.886;2023-03-23T06:38:42;13.20;99.90
36800;DHT22;22752;51.960;5.886;2023-03-23T06:41:07;13.20;99.90
36800;DHT22;22752;51.960;5.886;2023-03-23T06:43:34;13.20;99.90
36800;DHT22;22752;51.960;5.886;2023-03-23T06:46:01;13.20;99.90
36800;DHT22;22752;51.960;5.886;2023-03-23T06:48:28;13.20;99.90
36800;DHT22;22752;51.960;5.886;2023-03-23T06:50:53;13.20;99.90
36800;DHT22;22752;51.960;5.886;2023-03-23T06:53:19;13.20;99.90
36800;DHT22;22752;51.960;5.886;2023-03-23T06:55:46;13.20;99.90
36800;DHT22;22752;51.960;5.886;2023-03-23T06:58:12;13.20;99.90
36800;DHT22;22752;51.960;5.886;2023-03-23T07:00:38;13.20;99.90
36800;DHT22;22752;51.960;5.886;2023-03-23T07:03:06;13.20;99.90
36800;DHT22;22752;51.960;5.886;2023-03-23T07:05:33;13.20;99.90
36800;DHT22;22752;51.960;5.886;2023-03-23T07:07:59;13.20;99.90
36800;DHT22;22752;51.960;5.886;2023-03-23T07:10:25;13.20;99.90
36800;DHT22;22752;51.960;5.886;2023-03-23T07:12:50;13.20;99.90
36800;DHT22;22752;51.960;5.886;2023-03-23T07:15:16;13.20;99.90
36800;DHT22;22752;51.960;5.886;2023-03-23T07:17:42;13.30;99.90
36800;DHT22;22752;51.960;5.886;2023-03-23T07:20:08;13.30;99.90
36800;DHT22;22752;51.960;5.886;2023-03-23T07:22:34;13.30;99.90
36800;DHT22;22752;51.960;5.886;2023-03-23T07:25:00;13.30;99.90
36800;DHT22;22752;51.960;5.886;2023-03-23T07:27:26;13.30;99.90
36800;DHT22;22752;51.960;5.886;2023-03-23T07:29:52;13.40;99.90
36800;DHT22;22752;51.960;5.886;2023-03-23T07:32:18;13.40;99.90
36800;DHT22;22752;51.960;5.886;2023-03-23T07:34:44;13.40;99.90
36800;DHT22;22752;51.960;5.886;2023-03-23T07:37:09;13.50;99.90
36800;DHT22;22752;51.960;5.886;2023-03-23T07:39:35;13.50;99.90
36800;DHT22;22752;51.960;5.886;2023-03-23T07:42:01;13.50;99.90
36800;DHT22;22752;51.960;5.886;2023-03-23T07:44:27;13.40;99.90
36800;DHT22;22752;51.960;5.886;2023-03-23T07:46:53;13.40;99.90
36800;DHT22;22752;51.960;5.886;2023-03-23T07:49:19;13.40;99.90
36800;DHT22;22752;51.960;5.886;2023-03-23T07:51:45;13.30;99.90
36800;DHT22;22752;51.960;5.886;2023-03-23T07:54:11;13.20;99.90
36800;DHT22;22752;51.960;5.886;2023-03-23T07:56:37;13.10;99.90
36800;DHT22;22752;51.960;5.886;2023-03-23T07:59:06;13.20;99.90
36800;DHT22;22752;51.960;5.886;2023-03-23T08:01:32;13.10;99.90
36800;DHT22;22752;51.960;5.886;2023-03-23T08:03:58;13.10;99.90
36800;DHT22;22752;51.960;5.886;2023-03-23T08:06:25;13.00;99.90
36800;DHT22;22752;51.960;5.886;2023-03-23T08:08:51;12.90;99.90
36800;DHT22;22752;51.960;5.886;2023-03-23T08:11:17;12.80;99.90
36800;DHT22;22752;51.960;5.886;2023-03-23T08:13:44;12.80;99.90
36800;DHT22;22752;51.960;5.886;2023-03-23T08:16:10;12.70;99.90
36800;DHT22;22752;51.960;5.886;2023-03-23T08:18:37;12.70;99.90
36800;DHT22;22752;51.960;5.886;2023-03-23T08:21:07;12.80;99.90
36800;DHT22;22752;51.960;5.886;2023-03-23T08:23:36;12.80;99.90
36800;DHT22;22752;51.960;5.886;2023-03-23T08:26:06;12.90;99.90
36800;DHT22;22752;51.960;5.886;2023-03-23T08:28:36;12.80;99.90
36800;DHT22;22752;51.960;5.886;2023-03-23T08:31:10;12.90;99.90
36800;DHT22;22752;51.960;5.886;2023-03-23T08:33:37;13.00;99.90
36800;DHT22;22752;51.960;5.886;2023-03-23T08:36:03;13.00;99.90
36800;DHT22;22752;51.960;5.886;2023-03-23T08:38:30;13.10;99.90
36800;DHT22;22752;51.960;5.886;2023-03-23T08:41:01;13.10;99.90
36800;DHT22;22752;51.960;5.886;2023-03-23T08:43:28;13.20;99.90
36800;DHT22;22752;51.960;5.886;2023-03-23T08:45:54;13.20;99.90
36800;DHT22;22752;51.960;5.886;2023-03-23T08:48:21;13.30;99.90
36800;DHT22;22752;51.960;5.886;2023-03-23T08:50:46;13.40;99.90
36800;DHT22;22752;51.960;5.886;2023-03-23T08:53:12;13.40;99.90
36800;DHT22;22752;51.960;5.886;2023-03-23T08:55:38;13.50;99.90
36800;DHT22;22752;51.960;5.886;2023-03-23T08:58:05;13.50;99.90
36800;DHT22;22752;51.960;5.886;2023-03-23T09:00:31;13.50;99.90
36800;DHT22;22752;51.960;5.886;2023-03-23T09:02:58;13.60;99.90
36800;DHT22;22752;51.960;5.886;2023-03-23T09:05:26;13.60;99.90
36800;DHT22;22752;51.960;5.886;2023-03-23T09:07:54;13.60;99.90
36800;DHT22;22752;51.960;5.886;2023-03-23T09:10:20;13.60;99.90
36800;DHT22;22752;51.960;5.886;2023-03-23T09:12:47;13.60;99.90
36800;DHT22;22752;51.960;5.886;2023-03-23T09:15:15;13.60;99.90
36800;DHT22;22752;51.960;5.886;2023-03-23T09:17:46;13.60;99.90
36800;DHT22;22752;51.960;5.886;2023-03-23T09:20:15;13.70;99.90
36800;DHT22;22752;51.960;5.886;2023-03-23T09:22:43;13.80;99.90
36800;DHT22;22752;51.960;5.886;2023-03-23T09:25:11;13.90;99.90
36800;DHT22;22752;51.960;5.886;2023-03-23T09:27:38;14.00;99.90
36800;DHT22;22752;51.960;5.886;2023-03-23T09:30:09;14.10;99.90
36800;DHT22;22752;51.960;5.886;2023-03-23T09:32:37;14.10;99.90
36800;DHT22;22752;51.960;5.886;2023-03-23T09:35:05;14.10;99.90
36800;DHT22;22752;51.960;5.886;2023-03-23T09:37:37;14.20;99.90
36800;DHT22;22752;51.960;5.886;2023-03-23T09:40:04;14.20;99.90
36800;DHT22;22752;51.960;5.886;2023-03-23T09:50:25;14.40;99.90
36800;DHT22;22752;51.960;5.886;2023-03-23T09:53:16;14.50;99.90
36800;DHT22;22752;51.960;5.886;2023-03-23T09:55:42;14.60;99.90
36800;DHT22;22752;51.960;5.886;2023-03-23T09:58:26;14.60;99.90
36800;DHT22;22752;51.960;5.886;2023-03-23T10:00:56;14.60;99.90
36800;DHT22;22752;51.960;5.886;2023-03-23T10:03:27;14.50;99.90
36800;DHT22;22752;51.960;5.886;2023-03-23T10:05:57;14.60;99.90
36800;DHT22;22752;51.960;5.886;2023-03-23T10:08:29;14.60;99.90
36800;DHT22;22752;51.960;5.886;2023-03-23T10:11:09;14.60;99.90
36800;DHT22;22752;51.960;5.886;2023-03-23T10:16:18;14.70;99.90
36800;DHT22;22752;51.960;5.886;2023-03-23T10:18:52;14.70;99.90
36800;DHT22;22752;51.960;5.886;2023-03-23T10:21:22;14.70;99.90
36800;DHT22;22752;51.960;5.886;2023-03-23T10:29:29;14.90;99.90
36800;DHT22;22752;51.960;5.886;2023-03-23T10:32:14;14.90;99.90
36800;DHT22;22752;51.960;5.886;2023-03-23T10:34:49;15.00;99.90
36800;DHT22;22752;51.960;5.886;2023-03-23T10:37:27;15.30;99.90
36800;DHT22;22752;51.960;5.886;2023-03-23T10:40:02;15.40;99.90
36800;DHT22;22752;51.960;5.886;2023-03-23T10:42:34;15.50;99.90
36800;DHT22;22752;51.960;5.886;2023-03-23T10:45:21;15.50;99.90
36800;DHT22;22752;51.960;5.886;2023-03-23T10:48:00;15.50;99.90
36800;DHT22;22752;51.960;5.886;2023-03-23T10:50:32;15.60;99.90
36800;DHT22;22752;51.960;5.886;2023-03-23T10:53:00;15.60;99.90
36800;DHT22;22752;51.960;5.886;2023-03-23T10:55:39;15.70;99.90
36800;DHT22;22752;51.960;5.886;2023-03-23T10:58:22;15.90;99.90
36800;DHT22;22752;51.960;5.886;2023-03-23T11:00:49;16.00;99.90
36800;DHT22;22752;51.960;5.886;2023-03-23T11:05:53;16.10;99.90
36800;DHT22;22752;51.960;5.886;2023-03-23T11:08:24;16.20;99.90
36800;DHT22;22752;51.960;5.886;2023-03-23T11:10:56;16.20;99.90
36800;DHT22;22752;51.960;5.886;2023-03-23T11:13:30;16.10;99.90
36800;DHT22;22752;51.960;5.886;2023-03-23T11:15:56;15.90;99.90
36800;DHT22;22752;51.960;5.886;2023-03-23T11:18:34;15.80;99.90
36800;DHT22;22752;51.960;5.886;2023-03-23T11:21:02;15.80;99.90
36800;DHT22;22752;51.960;5.886;2023-03-23T11:23:32;15.80;99.90
36800;DHT22;22752;51.960;5.886;2023-03-23T11:26:30;15.70;99.90
36800;DHT22;22752;51.960;5.886;2023-03-23T11:31:36;15.50;99.90
36800;DHT22;22752;51.960;5.886;2023-03-23T11:36:34;15.80;99.90
36800;DHT22;22752;51.960;5.886;2023-03-23T11:39:00;15.90;99.90
36800;DHT22;22752;51.960;5.886;2023-03-23T11:41:34;15.90;99.90
36800;DHT22;22752;51.960;5.886;2023-03-23T11:44:08;16.00;99.90
36800;DHT22;22752;51.960;5.886;2023-03-23T11:51:56;15.80;99.90
36800;DHT22;22752;51.960;5.886;2023-03-23T11:54:36;15.80;99.90
36800;DHT22;22752;51.960;5.886;2023-03-23T11:57:08;15.70;99.90
36800;DHT22;22752;51.960;5.886;2023-03-23T11:59:36;15.70;99.90
36800;DHT22;22752;51.960;5.886;2023-03-23T12:13:42;15.20;99.90
36800;DHT22;22752;51.960;5.886;2023-03-23T12:27:18;15.50;99.90
36800;DHT22;22752;51.960;5.886;2023-03-23T12:35:18;16.10;99.90
36800;DHT22;22752;51.960;5.886;2023-03-23T12:43:48;16.50;99.90
36800;DHT22;22752;51.960;5.886;2023-03-23T12:51:56;16.40;99.90
36800;DHT22;22752;51.960;5.886;2023-03-23T12:57:08;16.00;99.90
36800;DHT22;22752;51.960;5.886;2023-03-23T13:08:01;15.10;99.90
36800;DHT22;22752;51.960;5.886;2023-03-23T13:10:42;14.70;99.90
36800;DHT22;22752;51.960;5.886;2023-03-23T13:13:50;14.50;99.90
36800;DHT22;22752;51.960;5.886;2023-03-23T13:16:28;14.30;99.90
36800;DHT22;22752;51.960;5.886;2023-03-23T13:19:29;14.30;99.90
36800;DHT22;22752;51.960;5.886;2023-03-23T13:22:07;14.20;99.90
36800;DHT22;22752;51.960;5.886;2023-03-23T13:24:38;14.10;99.90
36800;DHT22;22752;51.960;5.886;2023-03-23T13:27:08;14.10;99.90
36800;DHT22;22752;51.960;5.886;2023-03-23T13:29:35;14.00;99.90
36800;DHT22;22752;51.960;5.886;2023-03-23T13:32:12;14.10;99.90
36800;DHT22;22752;51.960;5.886;2023-03-23T13:34:39;14.20;99.90
36800;DHT22;22752;51.960;5.886;2023-03-23T13:37:18;14.20;99.90
36800;DHT22;22752;51.960;5.886;2023-03-23T13:42:23;14.40;99.90
36800;DHT22;22752;51.960;5.886;2023-03-23T13:49:52;14.30;99.90
36800;DHT22;22752;51.960;5.886;2023-03-23T13:55:38;14.30;99.90
36800;DHT22;22752;51.960;5.886;2023-03-23T14:06:04;14.80;99.90
36800;DHT22;22752;51.960;5.886;2023-03-23T14:11:22;14.80;99.90
36800;DHT22;22752;51.960;5.886;2023-03-23T14:14:15;14.80;99.90
36800;DHT22;22752;51.960;5.886;2023-03-23T14:16:44;14.70;99.90
36800;DHT22;22752;51.960;5.886;2023-03-23T14:19:23;14.60;99.90
36800;DHT22;22752;51.960;5.886;2023-03-23T14:21:57;14.60;99.90
36800;DHT22;22752;51.960;5.886;2023-03-23T14:26:52;14.60;99.90
36800;DHT22;22752;51.960;5.886;2023-03-23T14:29:19;14.50;99.90
36800;DHT22;22752;51.960;5.886;2023-03-23T14:31:50;14.60;99.90
36800;DHT22;22752;51.960;5.886;2023-03-23T14:34:19;14.70;99.90
36800;DHT22;22752;51.960;5.886;2023-03-23T14:36:46;14.90;99.90
36800;DHT22;22752;51.960;5.886;2023-03-23T14:41:41;15.40;99.90
36800;DHT22;22752;51.960;5.886;2023-03-23T14:44:17;15.50;99.90
36800;DHT22;22752;51.960;5.886;2023-03-23T14:46:44;15.70;99.90
36800;DHT22;22752;51.960;5.886;2023-03-23T14:49:14;15.80;99.90
36800;DHT22;22752;51.960;5.886;2023-03-23T14:51:53;15.80;99.90
36800;DHT22;22752;51.960;5.886;2023-03-23T14:54:28;15.70;99.90
36800;DHT22;22752;51.960;5.886;2023-03-23T14:57:05;15.60;99.90
36800;DHT22;22752;51.960;5.886;2023-03-23T14:59:34;15.50;99.90
36800;DHT22;22752;51.960;5.886;2023-03-23T15:02:00;15.50;99.90
36800;DHT22;22752;51.960;5.886;2023-03-23T15:04:27;15.50;99.90
36800;DHT22;22752;51.960;5.886;2023-03-23T15:07:02;15.40;99.90
36800;DHT22;22752;51.960;5.886;2023-03-23T15:09:28;15.40;99.90
36800;DHT22;22752;51.960;5.886;2023-03-23T15:12:00;15.40;99.90
36800;DHT22;22752;51.960;5.886;2023-03-23T15:14:29;15.40;99.90
36800;DHT22;22752;51.960;5.886;2023-03-23T15:16:57;15.40;99.90
36800;DHT22;22752;51.960;5.886;2023-03-23T15:19:36;15.40;99.90
36800;DHT22;22752;51.960;5.886;2023-03-23T15:22:22;15.40;99.90
36800;DHT22;22752;51.960;5.886;2023-03-23T15:24:50;15.30;99.90
36800;DHT22;22752;51.960;5.886;2023-03-23T15:27:26;15.30;99.90
36800;DHT22;22752;51.960;5.886;2023-03-23T15:29:54;15.30;99.90
36800;DHT22;22752;51.960;5.886;2023-03-23T15:32:23;15.40;99.90
36800;DHT22;22752;51.960;5.886;2023-03-23T15:34:49;15.40;99.90
36800;DHT22;22752;51.960;5.886;2023-03-23T15:37:20;15.50;99.90
36800;DHT22;22752;51.960;5.886;2023-03-23T15:39:46;15.60;99.90
36800;DHT22;22752;51.960;5.886;2023-03-23T15:42:27;15.60;99.90
36800;DHT22;22752;51.960;5.886;2023-03-23T15:45:16;15.50;99.90
36800;DHT22;22752;51.960;5.886;2023-03-23T15:47:47;15.50;99.90
36800;DHT22;22752;51.960;5.886;2023-03-23T15:50:39;15.40;99.90
36800;DHT22;22752;51.960;5.886;2023-03-23T15:53:25;15.40;99.90
36800;DHT22;22752;51.960;5.886;2023-03-23T15:55:51;15.50;99.90
36800;DHT22;22752;51.960;5.886;2023-03-23T15:58:17;15.60;99.90
36800;DHT22;22752;51.960;5.886;2023-03-23T16:00:43;15.70;99.90
36800;DHT22;22752;51.960;5.886;2023-03-23T16:03:15;15.70;99.90
36800;DHT22;22752;51.960;5.886;2023-03-23T16:05:42;15.80;99.90
36800;DHT22;22752;51.960;5.886;2023-03-23T16:08:10;15.80;99.90
36800;DHT22;22752;51.960;5.886;2023-03-23T16:10:36;15.80;99.90
36800;DHT22;22752;51.960;5.886;2023-03-23T16:13:02;15.80;99.90
36800;DHT22;22752;51.960;5.886;2023-03-23T16:15:30;15.80;99.90
36800;DHT22;22752;51.960;5.886;2023-03-23T16:17:55;15.80;99.90
36800;DHT22;22752;51.960;5.886;2023-03-23T16:20:22;15.70;99.90
36800;DHT22;22752;51.960;5.886;2023-03-23T16:22:49;15.70;99.90
36800;DHT22;22752;51.960;5.886;2023-03-23T16:25:16;15.70;99.90
36800;DHT22;22752;51.960;5.886;2023-03-23T16:27:43;15.70;99.90
36800;DHT22;22752;51.960;5.886;2023-03-23T16:32:40;15.80;99.90
36800;DHT22;22752;51.960;5.886;2023-03-23T16:35:05;15.80;99.90
36800;DHT22;22752;51.960;5.886;2023-03-23T16:37:31;15.90;99.90
36800;DHT22;22752;51.960;5.886;2023-03-23T16:39:58;15.70;99.90
36800;DHT22;22752;51.960;5.886;2023-03-23T16:42:24;15.70;99.90
36800;DHT22;22752;51.960;5.886;2023-03-23T16:44:49;15.50;99.90
36800;DHT22;22752;51.960;5.886;2023-03-23T16:47:16;15.40;99.90
36800;DHT22;22752;51.960;5.886;2023-03-23T16:49:43;15.30;99.90
36800;DHT22;22752;51.960;5.886;2023-03-23T16:52:09;15.10;99.90
36800;DHT22;22752;51.960;5.886;2023-03-23T16:54:35;15.00;99.90
36800;DHT22;22752;51.960;5.886;2023-03-23T16:57:01;14.90;99.90
36800;DHT22;22752;51.960;5.886;2023-03-23T16:59:27;14.90;99.90
36800;DHT22;22752;51.960;5.886;2023-03-23T17:01:53;14.90;99.90
36800;DHT22;22752;51.960;5.886;2023-03-23T17:04:19;14.90;99.90
36800;DHT22;22752;51.960;5.886;2023-03-23T17:06:44;14.80;99.90
36800;DHT22;22752;51.960;5.886;2023-03-23T17:09:11;14.80;99.90
36800;DHT22;22752;51.960;5.886;2023-03-23T17:11:36;14.80;99.90
36800;DHT22;22752;51.960;5.886;2023-03-23T17:14:02;14.80;99.90
36800;DHT22;22752;51.960;5.886;2023-03-23T17:16:28;14.70;99.90
36800;DHT22;22752;51.960;5.886;2023-03-23T17:18:53;14.70;99.90
36800;DHT22;22752;51.960;5.886;2023-03-23T17:21:19;14.70;99.90
36800;DHT22;22752;51.960;5.886;2023-03-23T17:23:49;14.70;99.90
36800;DHT22;22752;51.960;5.886;2023-03-23T17:26:16;14.60;99.90
36800;DHT22;22752;51.960;5.886;2023-03-23T17:28:41;14.60;99.90
36800;DHT22;22752;51.960;5.886;2023-03-23T17:31:07;14.60;99.90
36800;DHT22;22752;51.960;5.886;2023-03-23T17:33:32;14.60;99.90
36800;DHT22;22752;51.960;5.886;2023-03-23T17:35:58;14.60;99.90
36800;DHT22;22752;51.960;5.886;2023-03-23T17:38:24;14.50;99.90
36800;DHT22;22752;51.960;5.886;2023-03-23T17:40:56;14.50;99.90
36800;DHT22;22752;51.960;5.886;2023-03-23T17:43:22;14.50;99.90
36800;DHT22;22752;51.960;5.886;2023-03-23T17:45:47;14.40;99.90
36800;DHT22;22752;51.960;5.886;2023-03-23T17:48:13;14.40;99.90
36800;DHT22;22752;51.960;5.886;2023-03-23T17:50:39;14.40;99.90